sensor_id;sensor_type;location;lat;lon;timestamp;pressure;altitude;pressure_sealevel;temperature;humidity
19150;BME280;9707;49.158;8.632;2022-10-31T00:00:56;100840.94;;;22.44;46.09
19150;BME280;9707;49.158;8.632;2022-10-31T00:03:21;100844.63;;;22.43;45.99
19150;BME280;9707;49.158;8.632;2022-10-31T00:05:48;100845.63;;;22.42;46.21
19150;BME280;9707;49.158;8.632;2022-10-31T00:08:14;100845.63;;;22.42;46.08
19150;BME280;9707;49.158;8.632;2022-10-31T00:10:41;100838.47;;;22.41;45.84
19150;BME280;9707;49.158;8.632;2022-10-31T00:13:08;100845.88;;;22.39;46.13
19150;BME280;9707;49.158;8.632;2022-10-31T00:15:35;100838.69;;;22.38;45.84
19150;BME280;9707;49.158;8.632;2022-10-31T00:18:01;100838.69;;;22.38;45.89
19150;BME280;9707;49.158;8.632;2022-10-31T00:20:26;100836.88;;;22.38;45.89
19150;BME280;9707;49.158;8.632;2022-10-31T00:22:52;100835.25;;;22.36;46.00
19150;BME280;9707;49.158;8.632;2022-10-31T00:25:17;100835.25;;;22.36;46.14
19150;BME280;9707;49.158;8.632;2022-10-31T00:27:42;100839.81;;;22.35;45.89
19150;BME280;9707;49.158;8.632;2022-10-31T00:30:08;100840.69;;;22.36;46.14
19150;BME280;9707;49.158;8.632;2022-10-31T00:32:33;100830.94;;;22.33;45.90
19150;BME280;9707;49.158;8.632;2022-10-31T00:34:58;100830.06;;;22.33;46.01
19150;BME280;9707;49.158;8.632;2022-10-31T00:37:24;100833.78;;;22.32;45.84
19150;BME280;9707;49.158;8.632;2022-10-31T00:39:49;100832.06;;;22.31;45.99
19150;BME280;9707;49.158;8.632;2022-10-31T00:42:15;100835.75;;;22.30;45.83
19150;BME280;9707;49.158;8.632;2022-10-31T00:44:40;100830.34;;;22.30;46.30
19150;BME280;9707;49.158;8.632;2022-10-31T00:47:05;100835.75;;;22.30;46.15
19150;BME280;9707;49.158;8.632;2022-10-31T00:49:31;100831.31;;;22.29;46.31
19150;BME280;9707;49.158;8.632;2022-10-31T00:51:56;100837.72;;;22.28;45.90
19150;BME280;9707;49.158;8.632;2022-10-31T00:54:21;100837.72;;;22.28;45.79
19150;BME280;9707;49.158;8.632;2022-10-31T00:56:47;100838.72;;;22.27;46.04
19150;BME280;9707;49.158;8.632;2022-10-31T00:59:12;100838.81;;;22.25;46.01
19150;BME280;9707;49.158;8.632;2022-10-31T01:01:37;100837.97;;;22.25;46.13
19150;BME280;9707;49.158;8.632;2022-10-31T01:04:02;100834.38;;;22.24;45.98
19150;BME280;9707;49.158;8.632;2022-10-31T01:06:28;100834.50;;;22.23;46.14
19150;BME280;9707;49.158;8.632;2022-10-31T01:08:53;100837.22;;;22.23;46.22
19150;BME280;9707;49.158;8.632;2022-10-31T01:11:21;100832.66;;;22.23;45.94
19150;BME280;9707;49.158;8.632;2022-10-31T01:13:47;100827.34;;;22.22;45.82
19150;BME280;9707;49.158;8.632;2022-10-31T01:16:16;100831.06;;;22.21;45.80
19150;BME280;9707;49.158;8.632;2022-10-31T01:18:42;100831.94;;;22.21;45.58
19150;BME280;9707;49.158;8.632;2022-10-31T01:21:19;100827.63;;;22.19;45.52
19150;BME280;9707;49.158;8.632;2022-10-31T01:23:45;100825.03;;;22.17;45.50
19150;BME280;9707;49.158;8.632;2022-10-31T01:26:16;100831.28;;;22.18;45.48
19150;BME280;9707;49.158;8.632;2022-10-31T01:28:50;100837.72;;;22.17;45.34
19150;BME280;9707;49.158;8.632;2022-10-31T01:31:18;100833.28;;;22.16;45.93
19150;BME280;9707;49.158;8.632;2022-10-31T01:33:44;100836.09;;;22.14;45.77
19150;BME280;9707;49.158;8.632;2022-10-31T01:36:17;100839.56;;;22.16;45.87
19150;BME280;9707;49.158;8.632;2022-10-31T01:38:43;100834.16;;;22.16;45.88
19150;BME280;9707;49.158;8.632;2022-10-31T01:41:10;100836.97;;;22.15;45.35
19150;BME280;9707;49.158;8.632;2022-10-31T01:43:51;100841.66;;;22.13;45.34
19150;BME280;9707;49.158;8.632;2022-10-31T01:46:22;100846.34;;;22.11;45.38
19150;BME280;9707;49.158;8.632;2022-10-31T01:48:50;100841.91;;;22.10;45.41
19150;BME280;9707;49.158;8.632;2022-10-31T01:51:17;100843.63;;;22.11;45.56
19150;BME280;9707;49.158;8.632;2022-10-31T01:53:45;100832.03;;;22.09;45.44
19150;BME280;9707;49.158;8.632;2022-10-31T01:56:13;100838.19;;;22.11;45.31
19150;BME280;9707;49.158;8.632;2022-10-31T01:58:39;100842.91;;;22.09;45.46
19150;BME280;9707;49.158;8.632;2022-10-31T02:01:05;100840.19;;;22.09;45.70
19150;BME280;9707;49.158;8.632;2022-10-31T02:03:31;100840.19;;;22.09;45.27
19150;BME280;9707;49.158;8.632;2022-10-31T02:05:57;100838.44;;;22.08;45.33
19150;BME280;9707;49.158;8.632;2022-10-31T02:08:32;100837.59;;;22.07;45.40
19150;BME280;9707;49.158;8.632;2022-10-31T02:11:00;100842.25;;;22.05;45.10
19150;BME280;9707;49.158;8.632;2022-10-31T02:13:27;100833.25;;;22.05;45.07
19150;BME280;9707;49.158;8.632;2022-10-31T02:15:56;100836.97;;;22.04;45.13
19150;BME280;9707;49.158;8.632;2022-10-31T02:18:23;100845.09;;;22.04;45.33
19150;BME280;9707;49.158;8.632;2022-10-31T02:31:33;100838.69;;;22.05;45.61
19150;BME280;9707;49.158;8.632;2022-10-31T02:34:15;100839.69;;;22.04;45.25
19150;BME280;9707;49.158;8.632;2022-10-31T02:39:26;100837.94;;;22.03;45.70
19150;BME280;9707;49.158;8.632;2022-10-31T02:43:02;100832.50;;;22.03;45.44
19150;BME280;9707;49.158;8.632;2022-10-31T02:45:00;100832.50;;;22.03;45.80
19150;BME280;9707;49.158;8.632;2022-10-31T02:47:34;100833.50;;;22.02;45.42
19150;BME280;9707;49.158;8.632;2022-10-31T02:50:09;100820.91;;;22.01;45.31
19150;BME280;9707;49.158;8.632;2022-10-31T02:52:35;100827.34;;;22.00;45.09
19150;BME280;9707;49.158;8.632;2022-10-31T02:55:11;100830.91;;;22.00;44.98
19150;BME280;9707;49.158;8.632;2022-10-31T02:57:39;100822.03;;;21.98;44.87
19150;BME280;9707;49.158;8.632;2022-10-31T03:00:07;100832.00;;;21.98;44.79
19150;BME280;9707;49.158;8.632;2022-10-31T03:08:43;100824.34;;;21.92;44.93
19150;BME280;9707;49.158;8.632;2022-10-31T03:11:15;100832.50;;;21.92;44.98
19150;BME280;9707;49.158;8.632;2022-10-31T03:13:59;100829.03;;;21.90;44.79
19150;BME280;9707;49.158;8.632;2022-10-31T03:16:29;100833.47;;;21.91;45.01
19150;BME280;9707;49.158;8.632;2022-10-31T03:19:42;100831.75;;;21.90;45.07
19150;BME280;9707;49.158;8.632;2022-10-31T03:22:17;100833.75;;;21.88;45.09
19150;BME280;9707;49.158;8.632;2022-10-31T03:24:46;100831.97;;;21.87;45.16
19150;BME280;9707;49.158;8.632;2022-10-31T03:27:15;100834.59;;;21.88;44.99
19150;BME280;9707;49.158;8.632;2022-10-31T03:29:44;100833.75;;;21.88;45.24
19150;BME280;9707;49.158;8.632;2022-10-31T03:32:14;100825.59;;;21.88;44.98
19150;BME280;9707;49.158;8.632;2022-10-31T03:34:43;100831.88;;;21.88;45.19
19150;BME280;9707;49.158;8.632;2022-10-31T03:37:13;100835.47;;;21.89;45.05
19150;BME280;9707;49.158;8.632;2022-10-31T03:39:41;100827.44;;;21.87;45.17
19150;BME280;9707;49.158;8.632;2022-10-31T03:42:11;100823.72;;;21.88;44.94
19150;BME280;9707;49.158;8.632;2022-10-31T03:44:38;100824.72;;;21.87;45.40
19150;BME280;9707;49.158;8.632;2022-10-31T03:47:06;100820.91;;;21.90;45.29
19150;BME280;9707;49.158;8.632;2022-10-31T03:49:32;100820.91;;;21.90;45.26
19150;BME280;9707;49.158;8.632;2022-10-31T03:52:15;100819.19;;;21.89;45.35
19150;BME280;9707;49.158;8.632;2022-10-31T03:54:45;100822.88;;;21.88;45.17
19150;BME280;9707;49.158;8.632;2022-10-31T03:57:30;100822.88;;;21.88;45.31
19150;BME280;9707;49.158;8.632;2022-10-31T04:00:06;100817.56;;;21.86;45.35
19150;BME280;9707;49.158;8.632;2022-10-31T04:02:34;100814.97;;;21.85;45.43
19150;BME280;9707;49.158;8.632;2022-10-31T04:05:04;100817.69;;;21.85;45.17
19150;BME280;9707;49.158;8.632;2022-10-31T04:07:34;100811.53;;;21.83;45.37
19150;BME280;9707;49.158;8.632;2022-10-31T04:10:05;100820.41;;;21.85;45.56
19150;BME280;9707;49.158;8.632;2022-10-31T04:12:32;100812.28;;;21.85;45.41
19150;BME280;9707;49.158;8.632;2022-10-31T04:14:59;100822.25;;;21.84;45.34
19150;BME280;9707;49.158;8.632;2022-10-31T04:17:29;100808.81;;;21.83;45.21
19150;BME280;9707;49.158;8.632;2022-10-31T04:19:59;100806.13;;;21.83;45.28
19150;BME280;9707;49.158;8.632;2022-10-31T04:22:25;100806.13;;;21.83;45.29
19150;BME280;9707;49.158;8.632;2022-10-31T04:24:50;100799.91;;;21.81;45.40
19150;BME280;9707;49.158;8.632;2022-10-31T04:27:15;100805.34;;;21.81;45.24
19150;BME280;9707;49.158;8.632;2022-10-31T04:29:40;100799.09;;;21.80;45.20
19150;BME280;9707;49.158;8.632;2022-10-31T04:32:06;100798.19;;;21.80;45.33
19150;BME280;9707;49.158;8.632;2022-10-31T04:34:31;100799.91;;;21.81;45.50
19150;BME280;9707;49.158;8.632;2022-10-31T04:36:56;100799.91;;;21.81;45.42
19150;BME280;9707;49.158;8.632;2022-10-31T04:39:21;100793.66;;;21.80;45.30
19150;BME280;9707;49.158;8.632;2022-10-31T04:41:47;100801.91;;;21.79;44.95
19150;BME280;9707;49.158;8.632;2022-10-31T04:44:12;100807.31;;;21.79;45.34
19150;BME280;9707;49.158;8.632;2022-10-31T04:46:37;100808.16;;;21.79;45.12
19150;BME280;9707;49.158;8.632;2022-10-31T04:49:02;100803.75;;;21.78;45.25
19150;BME280;9707;49.158;8.632;2022-10-31T04:51:28;100800.19;;;21.78;45.58
19150;BME280;9707;49.158;8.632;2022-10-31T04:53:53;100799.19;;;21.79;45.84
19150;BME280;9707;49.158;8.632;2022-10-31T04:56:18;100800.91;;;21.80;46.52
19150;BME280;9707;49.158;8.632;2022-10-31T04:58:44;100797.09;;;21.82;47.22
19150;BME280;9707;49.158;8.632;2022-10-31T05:01:09;100793.16;;;21.86;47.14
19150;BME280;9707;49.158;8.632;2022-10-31T05:03:34;100802.78;;;21.90;46.77
19150;BME280;9707;49.158;8.632;2022-10-31T05:06:00;100800.94;;;21.91;46.35
19150;BME280;9707;49.158;8.632;2022-10-31T05:08:25;100791.81;;;21.92;46.68
19150;BME280;9707;49.158;8.632;2022-10-31T05:10:50;100794.41;;;21.93;46.54
19150;BME280;9707;49.158;8.632;2022-10-31T05:13:16;100795.28;;;21.94;46.00
19150;BME280;9707;49.158;8.632;2022-10-31T05:15:42;100807.22;;;21.91;45.37
19150;BME280;9707;49.158;8.632;2022-10-31T05:18:07;100801.03;;;21.89;44.96
19150;BME280;9707;49.158;8.632;2022-10-31T05:20:33;100802.16;;;21.87;44.78
19150;BME280;9707;49.158;8.632;2022-10-31T05:22:59;100801.41;;;21.85;44.87
19150;BME280;9707;49.158;8.632;2022-10-31T05:25:26;100798.81;;;21.83;44.94
19150;BME280;9707;49.158;8.632;2022-10-31T05:27:53;100795.38;;;21.81;44.99
19150;BME280;9707;49.158;8.632;2022-10-31T05:30:24;100799.09;;;21.80;44.86
19150;BME280;9707;49.158;8.632;2022-10-31T05:32:50;100795.50;;;21.80;45.11
19150;BME280;9707;49.158;8.632;2022-10-31T05:35:22;100792.91;;;21.78;45.26
19150;BME280;9707;49.158;8.632;2022-10-31T05:37:48;100789.34;;;21.78;45.19
19150;BME280;9707;49.158;8.632;2022-10-31T05:40:15;100798.44;;;21.77;44.98
19150;BME280;9707;49.158;8.632;2022-10-31T05:42:41;100788.56;;;21.76;44.87
19150;BME280;9707;49.158;8.632;2022-10-31T05:45:09;100787.84;;;21.74;44.83
19150;BME280;9707;49.158;8.632;2022-10-31T05:47:34;100795.97;;;21.74;44.59
19150;BME280;9707;49.158;8.632;2022-10-31T05:50:00;100785.25;;;21.72;44.43
19150;BME280;9707;49.158;8.632;2022-10-31T05:52:25;100788.06;;;21.71;44.65
19150;BME280;9707;49.158;8.632;2022-10-31T05:54:50;100782.66;;;21.71;44.31
19150;BME280;9707;49.158;8.632;2022-10-31T05:57:15;100781.91;;;21.69;44.39
19150;BME280;9707;49.158;8.632;2022-10-31T05:59:41;100777.44;;;21.68;44.46
19150;BME280;9707;49.158;8.632;2022-10-31T06:02:06;100791.97;;;21.67;44.62
19150;BME280;9707;49.158;8.632;2022-10-31T06:04:31;100782.97;;;21.66;44.33
19150;BME280;9707;49.158;8.632;2022-10-31T06:06:57;100786.69;;;21.65;44.22
19150;BME280;9707;49.158;8.632;2022-10-31T06:09:22;100795.66;;;21.66;44.42
19150;BME280;9707;49.158;8.632;2022-10-31T06:11:48;100789.50;;;21.64;44.26
19150;BME280;9707;49.158;8.632;2022-10-31T06:14:13;100795.94;;;21.63;44.20
19150;BME280;9707;49.158;8.632;2022-10-31T06:16:38;100804.16;;;21.61;44.01
19150;BME280;9707;49.158;8.632;2022-10-31T06:19:04;100802.44;;;21.60;44.10
19150;BME280;9707;49.158;8.632;2022-10-31T06:21:29;100797.88;;;21.61;44.18
19150;BME280;9707;49.158;8.632;2022-10-31T06:23:54;100793.44;;;21.60;44.14
19150;BME280;9707;49.158;8.632;2022-10-31T06:26:19;100797.97;;;21.59;44.35
19150;BME280;9707;49.158;8.632;2022-10-31T06:28:45;100792.56;;;21.59;44.15
19150;BME280;9707;49.158;8.632;2022-10-31T06:31:10;100796.25;;;21.58;44.35
19150;BME280;9707;49.158;8.632;2022-10-31T06:33:35;100791.81;;;21.57;44.20
19150;BME280;9707;49.158;8.632;2022-10-31T06:36:01;100797.25;;;21.57;44.29
19150;BME280;9707;49.158;8.632;2022-10-31T06:38:27;100796.38;;;21.57;44.10
19150;BME280;9707;49.158;8.632;2022-10-31T06:40:54;100786.41;;;21.57;44.48
19150;BME280;9707;49.158;8.632;2022-10-31T06:43:20;100790.00;;;21.58;44.60
19150;BME280;9707;49.158;8.632;2022-10-31T06:45:46;100793.56;;;21.58;44.76
19150;BME280;9707;49.158;8.632;2022-10-31T06:48:11;100794.16;;;21.62;44.77
19150;BME280;9707;49.158;8.632;2022-10-31T06:50:36;100795.03;;;21.62;44.26
19150;BME280;9707;49.158;8.632;2022-10-31T06:53:02;100797.88;;;21.61;44.10
19150;BME280;9707;49.158;8.632;2022-10-31T06:55:27;100798.84;;;21.60;43.98
19150;BME280;9707;49.158;8.632;2022-10-31T06:57:58;100798.84;;;21.60;44.44
19150;BME280;9707;49.158;8.632;2022-10-31T07:00:24;100796.16;;;21.60;44.81
19150;BME280;9707;49.158;8.632;2022-10-31T07:03:09;100796.88;;;21.62;45.11
19150;BME280;9707;49.158;8.632;2022-10-31T07:05:34;100794.06;;;21.63;45.23
19150;BME280;9707;49.158;8.632;2022-10-31T07:08:03;100796.66;;;21.65;44.61
19150;BME280;9707;49.158;8.632;2022-10-31T07:10:31;100796.66;;;21.65;44.62
19150;BME280;9707;49.158;8.632;2022-10-31T07:12:59;100802.06;;;21.65;44.81
19150;BME280;9707;49.158;8.632;2022-10-31T07:15:26;100809.22;;;21.66;44.77
19150;BME280;9707;49.158;8.632;2022-10-31T07:17:52;100799.25;;;21.66;45.24
19150;BME280;9707;49.158;8.632;2022-10-31T07:20:17;100806.41;;;21.67;45.24
19150;BME280;9707;49.158;8.632;2022-10-31T07:22:43;100809.03;;;21.69;44.99
19150;BME280;9707;49.158;8.632;2022-10-31T07:25:08;100808.03;;;21.70;44.95
19150;BME280;9707;49.158;8.632;2022-10-31T07:27:38;100802.38;;;21.73;45.62
19150;BME280;9707;49.158;8.632;2022-10-31T07:30:05;100801.28;;;21.75;45.90
19150;BME280;9707;49.158;8.632;2022-10-31T07:32:47;100798.19;;;21.80;45.23
19150;BME280;9707;49.158;8.632;2022-10-31T07:35:15;100794.50;;;21.81;44.91
19150;BME280;9707;49.158;8.632;2022-10-31T07:37:41;100802.41;;;21.84;45.27
19150;BME280;9707;49.158;8.632;2022-10-31T07:40:08;100801.41;;;21.85;45.66
19150;BME280;9707;49.158;8.632;2022-10-31T07:42:40;100802.16;;;21.87;45.17
19150;BME280;9707;49.158;8.632;2022-10-31T07:45:07;100801.19;;;21.88;45.14
19150;BME280;9707;49.158;8.632;2022-10-31T07:47:50;100811.91;;;21.89;45.80
19150;BME280;9707;49.158;8.632;2022-10-31T07:50:25;100810.94;;;21.90;45.47
19150;BME280;9707;49.158;8.632;2022-10-31T07:53:01;100810.78;;;21.92;45.41
19150;BME280;9707;49.158;8.632;2022-10-31T07:55:27;100816.97;;;21.94;45.58
19150;BME280;9707;49.158;8.632;2022-10-31T07:58:01;100812.28;;;21.96;45.54
19150;BME280;9707;49.158;8.632;2022-10-31T08:00:27;100816.72;;;21.97;45.24
19150;BME280;9707;49.158;8.632;2022-10-31T08:03:03;100819.53;;;21.95;44.81
19150;BME280;9707;49.158;8.632;2022-10-31T08:05:30;100812.28;;;21.96;44.97
19150;BME280;9707;49.158;8.632;2022-10-31T08:07:55;100807.59;;;21.98;45.62
19150;BME280;9707;49.158;8.632;2022-10-31T08:10:21;100802.81;;;22.01;45.76
19150;BME280;9707;49.158;8.632;2022-10-31T08:12:47;100807.13;;;22.04;45.80
19150;BME280;9707;49.158;8.632;2022-10-31T08:15:19;100806.03;;;22.06;46.20
19150;BME280;9707;49.158;8.632;2022-10-31T08:17:47;100799.47;;;22.09;46.00
19150;BME280;9707;49.158;8.632;2022-10-31T08:20:12;100804.66;;;22.12;46.05
19150;BME280;9707;49.158;8.632;2022-10-31T08:22:37;100790.97;;;22.13;46.27
19150;BME280;9707;49.158;8.632;2022-10-31T08:25:02;100792.69;;;22.14;46.01
19150;BME280;9707;49.158;8.632;2022-10-31T08:27:28;100794.28;;;22.17;45.74
19150;BME280;9707;49.158;8.632;2022-10-31T08:29:53;100797.00;;;22.17;45.90
19150;BME280;9707;49.158;8.632;2022-10-31T08:32:18;100795.06;;;22.19;45.78
19150;BME280;9707;49.158;8.632;2022-10-31T08:34:44;100792.19;;;22.20;45.76
19150;BME280;9707;49.158;8.632;2022-10-31T08:37:09;100790.34;;;22.21;45.53
19150;BME280;9707;49.158;8.632;2022-10-31T08:39:34;100788.50;;;22.21;45.34
19150;BME280;9707;49.158;8.632;2022-10-31T08:41:59;100783.09;;;22.21;45.66
19150;BME280;9707;49.158;8.632;2022-10-31T08:44:25;100784.91;;;22.21;45.52
19150;BME280;9707;49.158;8.632;2022-10-31T08:46:50;100783.09;;;22.21;45.56
19150;BME280;9707;49.158;8.632;2022-10-31T08:49:15;100782.94;;;22.23;45.62
19150;BME280;9707;49.158;8.632;2022-10-31T08:51:40;100781.09;;;22.23;45.71
19150;BME280;9707;49.158;8.632;2022-10-31T08:54:06;100777.38;;;22.24;45.96
19150;BME280;9707;49.158;8.632;2022-10-31T08:56:31;100778.16;;;22.26;45.94
19150;BME280;9707;49.158;8.632;2022-10-31T08:58:56;100775.28;;;22.28;46.04
19150;BME280;9707;49.158;8.632;2022-10-31T09:01:22;100770.00;;;22.26;45.15
19150;BME280;9707;49.158;8.632;2022-10-31T09:03:47;100767.53;;;22.23;45.22
19150;BME280;9707;49.158;8.632;2022-10-31T09:06:12;100765.94;;;22.21;45.22
19150;BME280;9707;49.158;8.632;2022-10-31T09:08:37;100765.31;;;22.17;45.38
19150;BME280;9707;49.158;8.632;2022-10-31T09:11:03;100764.56;;;22.15;45.77
19150;BME280;9707;49.158;8.632;2022-10-31T09:13:29;100766.53;;;22.13;45.90
19150;BME280;9707;49.158;8.632;2022-10-31T09:15:56;100768.25;;;22.14;46.09
19150;BME280;9707;49.158;8.632;2022-10-31T09:18:22;100767.41;;;22.14;46.21
19150;BME280;9707;49.158;8.632;2022-10-31T09:20:48;100768.25;;;22.14;46.26
19150;BME280;9707;49.158;8.632;2022-10-31T09:23:19;100764.72;;;22.14;46.28
19150;BME280;9707;49.158;8.632;2022-10-31T09:25:46;100763.59;;;22.16;46.46
19150;BME280;9707;49.158;8.632;2022-10-31T09:28:14;100769.03;;;22.16;46.48
19150;BME280;9707;49.158;8.632;2022-10-31T09:30:40;100758.28;;;22.15;46.28
19150;BME280;9707;49.158;8.632;2022-10-31T09:33:10;100764.44;;;22.17;46.44
19150;BME280;9707;49.158;8.632;2022-10-31T09:35:36;100762.72;;;22.16;46.58
19150;BME280;9707;49.158;8.632;2022-10-31T09:38:04;100759.88;;;22.17;46.66
19150;BME280;9707;49.158;8.632;2022-10-31T09:40:35;100760.72;;;22.18;46.63
19150;BME280;9707;49.158;8.632;2022-10-31T09:51:45;100759.00;;;22.17;47.11
19150;BME280;9707;49.158;8.632;2022-10-31T09:54:31;100757.06;;;22.19;47.06
19150;BME280;9707;49.158;8.632;2022-10-31T09:56:58;100753.47;;;22.18;47.27
19150;BME280;9707;49.158;8.632;2022-10-31T09:59:31;100755.94;;;22.21;47.43
19150;BME280;9707;49.158;8.632;2022-10-31T10:02:13;100749.16;;;22.27;47.66
19150;BME280;9707;49.158;8.632;2022-10-31T10:05:11;100736.94;;;22.32;47.51
19150;BME280;9707;49.158;8.632;2022-10-31T10:08:02;100735.44;;;22.39;47.29
19150;BME280;9707;49.158;8.632;2022-10-31T10:10:59;100736.03;;;22.43;47.34
19150;BME280;9707;49.158;8.632;2022-10-31T10:22:15;100726.19;;;22.53;47.25
19150;BME280;9707;49.158;8.632;2022-10-31T10:28:00;100730.50;;;22.55;47.22
19150;BME280;9707;49.158;8.632;2022-10-31T10:30:40;100725.94;;;22.56;47.33
19150;BME280;9707;49.158;8.632;2022-10-31T10:33:12;100728.41;;;22.59;47.29
19150;BME280;9707;49.158;8.632;2022-10-31T10:35:42;100714.69;;;22.60;47.23
19150;BME280;9707;49.158;8.632;2022-10-31T10:38:22;100716.44;;;22.61;47.12
19150;BME280;9707;49.158;8.632;2022-10-31T10:40:49;100710.84;;;22.63;47.29
19150;BME280;9707;49.158;8.632;2022-10-31T10:43:24;100707.19;;;22.64;47.32
19150;BME280;9707;49.158;8.632;2022-10-31T10:46:16;100703.47;;;22.65;47.25
19150;BME280;9707;49.158;8.632;2022-10-31T10:49:29;100703.59;;;22.63;47.42
19150;BME280;9707;49.158;8.632;2022-10-31T10:52:07;100699.88;;;22.64;47.45
19150;BME280;9707;49.158;8.632;2022-10-31T10:57:26;100691.59;;;22.66;47.53
19150;BME280;9707;49.158;8.632;2022-10-31T10:59:52;100689.59;;;22.68;47.55
19150;BME280;9707;49.158;8.632;2022-10-31T11:02:20;100698.50;;;22.70;47.62
19150;BME280;9707;49.158;8.632;2022-10-31T11:04:52;100682.94;;;22.72;47.49
19150;BME280;9707;49.158;8.632;2022-10-31T11:07:18;100682.69;;;22.75;47.54
19150;BME280;9707;49.158;8.632;2022-10-31T11:09:43;100679.09;;;22.74;47.52
19150;BME280;9707;49.158;8.632;2022-10-31T11:14:56;100665.13;;;22.79;47.46
19150;BME280;9707;49.158;8.632;2022-10-31T11:17:32;100661.44;;;22.80;47.45
19150;BME280;9707;49.158;8.632;2022-10-31T11:22:29;100646.56;;;22.84;47.38
19150;BME280;9707;49.158;8.632;2022-10-31T11:24:54;100647.31;;;22.86;47.33
19150;BME280;9707;49.158;8.632;2022-10-31T11:27:21;100648.31;;;22.85;47.49
19150;BME280;9707;49.158;8.632;2022-10-31T11:29:47;100648.16;;;22.86;47.52
19150;BME280;9707;49.158;8.632;2022-10-31T11:32:22;100650.75;;;22.88;47.62
19150;BME280;9707;49.158;8.632;2022-10-31T11:34:52;100647.03;;;22.89;47.50
19150;BME280;9707;49.158;8.632;2022-10-31T11:37:29;100641.50;;;22.90;47.39
19150;BME280;9707;49.158;8.632;2022-10-31T11:39:59;100644.97;;;22.92;47.36
19150;BME280;9707;49.158;8.632;2022-10-31T11:42:28;100630.25;;;22.95;47.39
19150;BME280;9707;49.158;8.632;2022-10-31T11:44:55;100627.25;;;22.98;47.45
19150;BME280;9707;49.158;8.632;2022-10-31T11:47:28;100618.25;;;22.97;47.42
19150;BME280;9707;49.158;8.632;2022-10-31T11:49:55;100617.13;;;23.00;47.42
19150;BME280;9707;49.158;8.632;2022-10-31T11:52:27;100611.41;;;23.03;47.35
19150;BME280;9707;49.158;8.632;2022-10-31T11:54:55;100612.16;;;23.05;47.38
19150;BME280;9707;49.158;8.632;2022-10-31T11:57:46;100606.72;;;23.05;47.36
19150;BME280;9707;49.158;8.632;2022-10-31T12:00:21;100610.16;;;23.07;47.50
19150;BME280;9707;49.158;8.632;2022-10-31T12:02:47;100621.91;;;23.07;47.33
19150;BME280;9707;49.158;8.632;2022-10-31T12:05:21;100615.59;;;23.07;47.57
19150;BME280;9707;49.158;8.632;2022-10-31T12:07:48;100611.88;;;23.08;47.33
19150;BME280;9707;49.158;8.632;2022-10-31T12:10:14;100606.31;;;23.09;47.44
19150;BME280;9707;49.158;8.632;2022-10-31T12:15:30;100603.59;;;23.09;47.48
19150;BME280;9707;49.158;8.632;2022-10-31T12:18:06;100620.78;;;23.10;47.78
19150;BME280;9707;49.158;8.632;2022-10-31T12:24:14;100597.28;;;23.09;47.70
19150;BME280;9707;49.158;8.632;2022-10-31T12:27:07;100594.56;;;23.09;47.56
19150;BME280;9707;49.158;8.632;2022-10-31T12:35:20;100590.13;;;23.08;47.35
19150;BME280;9707;49.158;8.632;2022-10-31T12:38:24;100604.47;;;23.10;47.53
19150;BME280;9707;49.158;8.632;2022-10-31T12:44:06;100571.88;;;23.10;47.37
19150;BME280;9707;49.158;8.632;2022-10-31T12:53:00;100530.09;;;23.11;47.37
19150;BME280;9707;49.158;8.632;2022-10-31T12:58:10;100520.69;;;23.15;47.38
19150;BME280;9707;49.158;8.632;2022-10-31T13:00:43;100515.09;;;23.16;47.33
19150;BME280;9707;49.158;8.632;2022-10-31T13:05:54;100508.44;;;23.20;47.35
19150;BME280;9707;49.158;8.632;2022-10-31T13:08:39;100501.00;;;23.22;47.25
19150;BME280;9707;49.158;8.632;2022-10-31T13:11:15;100508.03;;;23.25;47.29
19150;BME280;9707;49.158;8.632;2022-10-31T13:13:57;100500.72;;;23.25;47.12
19150;BME280;9707;49.158;8.632;2022-10-31T13:16:44;100495.16;;;23.27;47.24
19150;BME280;9707;49.158;8.632;2022-10-31T13:22:08;100490.44;;;23.29;46.96
19150;BME280;9707;49.158;8.632;2022-10-31T13:24:54;100490.44;;;23.29;47.36
19150;BME280;9707;49.158;8.632;2022-10-31T13:30:01;100485.75;;;23.31;47.22
19150;BME280;9707;49.158;8.632;2022-10-31T13:32:44;100490.16;;;23.32;47.24
19150;BME280;9707;49.158;8.632;2022-10-31T13:35:18;100483.59;;;23.34;47.25
19150;BME280;9707;49.158;8.632;2022-10-31T13:37:52;100489.63;;;23.38;47.32
19150;BME280;9707;49.158;8.632;2022-10-31T13:45:56;100519.84;;;23.44;47.44
19150;BME280;9707;49.158;8.632;2022-10-31T13:51:07;100505.09;;;23.47;47.50
19150;BME280;9707;49.158;8.632;2022-10-31T14:01:34;100480.63;;;23.47;47.39
19150;BME280;9707;49.158;8.632;2022-10-31T14:04:14;100476.91;;;23.48;47.33
19150;BME280;9707;49.158;8.632;2022-10-31T14:06:45;100472.19;;;23.50;47.30
19150;BME280;9707;49.158;8.632;2022-10-31T14:09:28;100481.09;;;23.52;46.99
19150;BME280;9707;49.158;8.632;2022-10-31T14:11:58;100468.19;;;23.54;47.02
19150;BME280;9707;49.158;8.632;2022-10-31T14:14:34;100459.91;;;23.55;47.02
19150;BME280;9707;49.158;8.632;2022-10-31T14:17:01;100461.63;;;23.56;46.68
19150;BME280;9707;49.158;8.632;2022-10-31T14:19:27;100455.03;;;23.59;46.79
19150;BME280;9707;49.158;8.632;2022-10-31T14:21:53;100447.88;;;23.58;46.72
19150;BME280;9707;49.158;8.632;2022-10-31T14:26:55;100434.16;;;23.59;46.67
19150;BME280;9707;49.158;8.632;2022-10-31T14:29:28;100433.28;;;23.59;46.78
19150;BME280;9707;49.158;8.632;2022-10-31T14:31:59;100442.31;;;23.59;46.86
19150;BME280;9707;49.158;8.632;2022-10-31T14:34:40;100440.44;;;23.60;46.72
19150;BME280;9707;49.158;8.632;2022-10-31T14:37:34;100448.59;;;23.60;46.86
19150;BME280;9707;49.158;8.632;2022-10-31T14:45:27;100457.06;;;23.57;47.13
19150;BME280;9707;49.158;8.632;2022-10-31T14:48:07;100459.78;;;23.57;46.98
19150;BME280;9707;49.158;8.632;2022-10-31T14:50:50;100456.03;;;23.58;47.23
19150;BME280;9707;49.158;8.632;2022-10-31T14:53:29;100465.22;;;23.57;47.13
19150;BME280;9707;49.158;8.632;2022-10-31T14:55:57;100461.63;;;23.56;47.27
19150;BME280;9707;49.158;8.632;2022-10-31T14:58:33;100451.75;;;23.55;47.22